首页
METAR-TAF:

METAR-TAF

机场 :

道森克里克, 不列颠哥伦比亚, 加拿大

纬度: 55-45N, 经度: 120-11W, 海拔: 655米

当前天气观测

该预报发布于1小时和24分钟前的23:00 UTC
风速11节,风向北转西北,有时为16节阵风
温度 14°C
湿度 44%
气压 1012 hPa
能見度: 14.5公里
天空无云

METAR: CYDQ 162300Z AUTO 33011G16KT 9SM CLR 14/02 A2989 RMK SLP142 DENSITY ALT 2600FT

时间: 17:24 (00:24 UTC)

预报

该预报发布于5小时和44分钟前的18:40 UTC
预报有效从16日的 19点(UTC)到 17日的 05点(UTC)
风速12节,风向西北
能見度: 10公里
多云层高于4000英尺
短暂存在
从 16日的 19点(UTC)到 17日的 01点(UTC)
风速20节,风向多变,有时为30节阵风
能見度: 10公里
多云层高于4000英尺, 积雨云.
小阵雨, 附近有雷暴
从 17日的 0100点(UTC)
风速10节,风向北转西北
能見度: 10公里
散云层高于4000英尺
短暂存在
从 17日的 01点(UTC)到 17日的 05点(UTC)
能見度: 10公里
多云层高于4000英尺
附近有阵雨

TAF: CYDQ 161840Z 1619/1705 31012KT P6SM BKN040 TEMPO 1619/1701 VRB20G30KT P6SM -SHRA VCTS BKN040CB FM170100 34010KT P6SM SCT040 TEMPO 1701/1705 P6SM VCSH BKN040 RMK FCST BASED ON AUTO OBS. NXT FCST BY 170100Z

超过4000个机场的气象观测和天气预报(METAR&TAF报告)。

可查询的气象台以黄色和红色小点在地图上表示。

将鼠标移到小点上方,可查看气象台名称。

然后点击查看天气观测和预报。

如需切换地图:点击带黑十字的绿色按钮放大地图;点击带横线的绿色按钮缩小地图;或者点击绿色箭头查看邻近地区的地图。


METAR-TAF: